sensor_id;sensor_type;location;lat;lon;timestamp;P1;durP1;ratioP1;P2;durP2;ratioP2
75700;SDS011;64321;48.796;44.740;2023-08-06T00:03:35;7.20;;;5.90;;
75700;SDS011;64321;48.796;44.740;2023-08-06T00:08:38;7.10;;;5.82;;
75700;SDS011;64321;48.796;44.740;2023-08-06T00:13:40;7.43;;;5.88;;
75700;SDS011;64321;48.796;44.740;2023-08-06T00:18:42;5.68;;;5.05;;
75700;SDS011;64321;48.796;44.740;2023-08-06T00:23:44;7.18;;;5.80;;
75700;SDS011;64321;48.796;44.740;2023-08-06T00:28:47;7.82;;;6.80;;
75700;SDS011;64321;48.796;44.740;2023-08-06T00:33:49;9.20;;;6.40;;
75700;SDS011;64321;48.796;44.740;2023-08-06T00:38:51;10.13;;;7.00;;
75700;SDS011;64321;48.796;44.740;2023-08-06T00:43:53;8.90;;;6.60;;
75700;SDS011;64321;48.796;44.740;2023-08-06T00:48:56;11.35;;;7.32;;
75700;SDS011;64321;48.796;44.740;2023-08-06T00:53:58;10.27;;;6.45;;
75700;SDS011;64321;48.796;44.740;2023-08-06T00:59:00;10.80;;;7.53;;
75700;SDS011;64321;48.796;44.740;2023-08-06T01:04:03;7.90;;;6.53;;
75700;SDS011;64321;48.796;44.740;2023-08-06T01:14:34;12.75;;;6.05;;
75700;SDS011;64321;48.796;44.740;2023-08-06T01:19:39;10.25;;;6.60;;
75700;SDS011;64321;48.796;44.740;2023-08-06T01:24:41;9.25;;;6.72;;
75700;SDS011;64321;48.796;44.740;2023-08-06T01:29:52;9.57;;;6.45;;
75700;SDS011;64321;48.796;44.740;2023-08-06T01:34:56;9.82;;;6.80;;
75700;SDS011;64321;48.796;44.740;2023-08-06T01:40:05;8.65;;;6.80;;
75700;SDS011;64321;48.796;44.740;2023-08-06T01:45:07;9.52;;;6.90;;
75700;SDS011;64321;48.796;44.740;2023-08-06T01:50:10;8.23;;;7.00;;
75700;SDS011;64321;48.796;44.740;2023-08-06T01:55:12;8.38;;;7.10;;
75700;SDS011;64321;48.796;44.740;2023-08-06T02:00:14;12.25;;;6.95;;
75700;SDS011;64321;48.796;44.740;2023-08-06T02:05:16;12.00;;;8.02;;
75700;SDS011;64321;48.796;44.740;2023-08-06T02:10:18;12.13;;;8.18;;
75700;SDS011;64321;48.796;44.740;2023-08-06T02:15:20;9.85;;;7.05;;
75700;SDS011;64321;48.796;44.740;2023-08-06T02:20:23;10.63;;;6.90;;
75700;SDS011;64321;48.796;44.740;2023-08-06T02:25:25;10.45;;;7.65;;
75700;SDS011;64321;48.796;44.740;2023-08-06T02:30:27;14.63;;;7.70;;
75700;SDS011;64321;48.796;44.740;2023-08-06T02:35:29;9.95;;;8.02;;
75700;SDS011;64321;48.796;44.740;2023-08-06T02:40:31;11.45;;;6.85;;
75700;SDS011;64321;48.796;44.740;2023-08-06T02:45:33;10.02;;;6.70;;
75700;SDS011;64321;48.796;44.740;2023-08-06T02:50:40;9.35;;;6.43;;
75700;SDS011;64321;48.796;44.740;2023-08-06T02:55:46;10.93;;;6.65;;
75700;SDS011;64321;48.796;44.740;2023-08-06T03:01:01;10.10;;;6.72;;
75700;SDS011;64321;48.796;44.740;2023-08-06T03:06:08;9.85;;;6.10;;
75700;SDS011;64321;48.796;44.740;2023-08-06T03:11:17;10.15;;;6.00;;
75700;SDS011;64321;48.796;44.740;2023-08-06T03:16:22;9.35;;;5.97;;
75700;SDS011;64321;48.796;44.740;2023-08-06T03:21:25;11.55;;;5.78;;
75700;SDS011;64321;48.796;44.740;2023-08-06T03:26:27;9.60;;;6.15;;
75700;SDS011;64321;48.796;44.740;2023-08-06T03:31:29;10.68;;;6.00;;
75700;SDS011;64321;48.796;44.740;2023-08-06T03:36:33;9.25;;;5.90;;
75700;SDS011;64321;48.796;44.740;2023-08-06T03:41:36;8.45;;;6.35;;
75700;SDS011;64321;48.796;44.740;2023-08-06T03:46:38;9.00;;;5.32;;
75700;SDS011;64321;48.796;44.740;2023-08-06T03:51:42;15.65;;;6.53;;
75700;SDS011;64321;48.796;44.740;2023-08-06T03:56:45;11.48;;;5.60;;
75700;SDS011;64321;48.796;44.740;2023-08-06T04:01:47;9.13;;;5.45;;
75700;SDS011;64321;48.796;44.740;2023-08-06T04:06:49;9.57;;;5.35;;
75700;SDS011;64321;48.796;44.740;2023-08-06T04:11:51;10.02;;;5.35;;
75700;SDS011;64321;48.796;44.740;2023-08-06T04:16:54;7.20;;;4.97;;
75700;SDS011;64321;48.796;44.740;2023-08-06T04:21:56;9.70;;;5.47;;
75700;SDS011;64321;48.796;44.740;2023-08-06T04:26:59;7.75;;;4.75;;
75700;SDS011;64321;48.796;44.740;2023-08-06T04:32:03;14.48;;;5.40;;
75700;SDS011;64321;48.796;44.740;2023-08-06T04:37:05;8.35;;;4.00;;
75700;SDS011;64321;48.796;44.740;2023-08-06T04:42:08;7.82;;;4.25;;
75700;SDS011;64321;48.796;44.740;2023-08-06T04:47:10;8.27;;;4.68;;
75700;SDS011;64321;48.796;44.740;2023-08-06T04:52:12;6.53;;;4.43;;
75700;SDS011;64321;48.796;44.740;2023-08-06T04:57:14;7.80;;;3.97;;
75700;SDS011;64321;48.796;44.740;2023-08-06T05:02:17;7.35;;;4.28;;
75700;SDS011;64321;48.796;44.740;2023-08-06T05:07:19;7.35;;;4.03;;
75700;SDS011;64321;48.796;44.740;2023-08-06T05:12:21;6.00;;;3.58;;
75700;SDS011;64321;48.796;44.740;2023-08-06T05:17:23;10.30;;;4.03;;
75700;SDS011;64321;48.796;44.740;2023-08-06T05:22:26;10.32;;;4.60;;
75700;SDS011;64321;48.796;44.740;2023-08-06T05:27:28;9.98;;;3.78;;
75700;SDS011;64321;48.796;44.740;2023-08-06T05:32:30;9.00;;;4.45;;
75700;SDS011;64321;48.796;44.740;2023-08-06T05:37:32;9.90;;;4.38;;
75700;SDS011;64321;48.796;44.740;2023-08-06T05:42:34;10.30;;;4.30;;
75700;SDS011;64321;48.796;44.740;2023-08-06T05:47:37;11.63;;;4.55;;
75700;SDS011;64321;48.796;44.740;2023-08-06T05:52:39;10.93;;;3.75;;
75700;SDS011;64321;48.796;44.740;2023-08-06T05:57:41;7.65;;;3.75;;
75700;SDS011;64321;48.796;44.740;2023-08-06T06:02:43;5.45;;;4.03;;
75700;SDS011;64321;48.796;44.740;2023-08-06T06:07:45;9.18;;;4.07;;
75700;SDS011;64321;48.796;44.740;2023-08-06T06:12:47;11.95;;;3.58;;
75700;SDS011;64321;48.796;44.740;2023-08-06T06:17:50;8.43;;;4.03;;
75700;SDS011;64321;48.796;44.740;2023-08-06T06:22:52;8.23;;;3.30;;
75700;SDS011;64321;48.796;44.740;2023-08-06T06:27:54;6.30;;;3.03;;
75700;SDS011;64321;48.796;44.740;2023-08-06T06:32:56;10.25;;;2.60;;
75700;SDS011;64321;48.796;44.740;2023-08-06T06:37:58;6.93;;;2.55;;
75700;SDS011;64321;48.796;44.740;2023-08-06T06:43:00;7.00;;;2.30;;
75700;SDS011;64321;48.796;44.740;2023-08-06T06:48:02;7.38;;;3.45;;
75700;SDS011;64321;48.796;44.740;2023-08-06T06:53:05;4.85;;;2.33;;
75700;SDS011;64321;48.796;44.740;2023-08-06T06:58:07;6.25;;;2.75;;
75700;SDS011;64321;48.796;44.740;2023-08-06T07:03:09;7.25;;;2.40;;
75700;SDS011;64321;48.796;44.740;2023-08-06T07:08:11;4.53;;;2.15;;
75700;SDS011;64321;48.796;44.740;2023-08-06T07:13:14;6.40;;;2.75;;
75700;SDS011;64321;48.796;44.740;2023-08-06T07:18:16;5.68;;;2.40;;
75700;SDS011;64321;48.796;44.740;2023-08-06T07:23:19;5.43;;;2.42;;
75700;SDS011;64321;48.796;44.740;2023-08-06T07:28:22;5.82;;;2.40;;
75700;SDS011;64321;48.796;44.740;2023-08-06T07:33:24;8.10;;;2.15;;
75700;SDS011;64321;48.796;44.740;2023-08-06T07:38:26;6.05;;;2.75;;
75700;SDS011;64321;48.796;44.740;2023-08-06T07:43:29;5.82;;;2.38;;
75700;SDS011;64321;48.796;44.740;2023-08-06T07:48:31;9.85;;;2.75;;
75700;SDS011;64321;48.796;44.740;2023-08-06T07:53:34;5.88;;;2.22;;
75700;SDS011;64321;48.796;44.740;2023-08-06T07:58:36;6.47;;;3.00;;
75700;SDS011;64321;48.796;44.740;2023-08-06T08:03:38;3.63;;;2.38;;
75700;SDS011;64321;48.796;44.740;2023-08-06T08:08:40;4.03;;;2.10;;
75700;SDS011;64321;48.796;44.740;2023-08-06T08:13:42;4.97;;;2.25;;
75700;SDS011;64321;48.796;44.740;2023-08-06T08:18:45;5.65;;;2.47;;
75700;SDS011;64321;48.796;44.740;2023-08-06T08:23:47;6.22;;;2.88;;
75700;SDS011;64321;48.796;44.740;2023-08-06T08:28:49;6.13;;;2.38;;
75700;SDS011;64321;48.796;44.740;2023-08-06T08:33:51;5.43;;;2.70;;
75700;SDS011;64321;48.796;44.740;2023-08-06T08:38:56;6.47;;;2.67;;
75700;SDS011;64321;48.796;44.740;2023-08-06T08:43:59;5.18;;;2.03;;
75700;SDS011;64321;48.796;44.740;2023-08-06T08:49:02;4.97;;;2.42;;
75700;SDS011;64321;48.796;44.740;2023-08-06T08:54:04;5.72;;;2.38;;
75700;SDS011;64321;48.796;44.740;2023-08-06T08:59:09;5.43;;;2.53;;
75700;SDS011;64321;48.796;44.740;2023-08-06T09:04:12;3.83;;;2.67;;
75700;SDS011;64321;48.796;44.740;2023-08-06T09:09:22;6.00;;;2.78;;
75700;SDS011;64321;48.796;44.740;2023-08-06T09:14:26;7.55;;;3.08;;
75700;SDS011;64321;48.796;44.740;2023-08-06T09:19:28;8.25;;;3.20;;
75700;SDS011;64321;48.796;44.740;2023-08-06T09:24:30;8.68;;;3.08;;
75700;SDS011;64321;48.796;44.740;2023-08-06T09:29:32;7.03;;;2.25;;
75700;SDS011;64321;48.796;44.740;2023-08-06T09:34:35;3.42;;;1.55;;
75700;SDS011;64321;48.796;44.740;2023-08-06T09:39:38;7.60;;;2.47;;
75700;SDS011;64321;48.796;44.740;2023-08-06T09:44:40;3.63;;;1.92;;
75700;SDS011;64321;48.796;44.740;2023-08-06T09:49:43;3.00;;;1.83;;
75700;SDS011;64321;48.796;44.740;2023-08-06T09:54:47;4.70;;;2.80;;
75700;SDS011;64321;48.796;44.740;2023-08-06T09:59:49;4.32;;;1.90;;
75700;SDS011;64321;48.796;44.740;2023-08-06T10:04:52;4.22;;;1.92;;
75700;SDS011;64321;48.796;44.740;2023-08-06T10:09:57;3.90;;;2.25;;
75700;SDS011;64321;48.796;44.740;2023-08-06T10:15:01;3.33;;;2.08;;
75700;SDS011;64321;48.796;44.740;2023-08-06T10:20:06;5.13;;;2.20;;
75700;SDS011;64321;48.796;44.740;2023-08-06T10:25:09;8.13;;;2.42;;
75700;SDS011;64321;48.796;44.740;2023-08-06T10:35:34;2.70;;;1.70;;
75700;SDS011;64321;48.796;44.740;2023-08-06T10:40:39;3.92;;;1.95;;
75700;SDS011;64321;48.796;44.740;2023-08-06T10:45:41;4.05;;;2.28;;
75700;SDS011;64321;48.796;44.740;2023-08-06T10:50:51;5.30;;;2.28;;
75700;SDS011;64321;48.796;44.740;2023-08-06T10:55:53;3.22;;;2.22;;
75700;SDS011;64321;48.796;44.740;2023-08-06T11:00:56;5.00;;;2.55;;
75700;SDS011;64321;48.796;44.740;2023-08-06T11:05:58;4.20;;;2.28;;
75700;SDS011;64321;48.796;44.740;2023-08-06T11:11:10;4.97;;;2.67;;
75700;SDS011;64321;48.796;44.740;2023-08-06T11:16:17;5.78;;;2.53;;
75700;SDS011;64321;48.796;44.740;2023-08-06T11:21:19;5.70;;;2.47;;
75700;SDS011;64321;48.796;44.740;2023-08-06T11:26:22;6.35;;;2.95;;
75700;SDS011;64321;48.796;44.740;2023-08-06T11:31:29;6.15;;;2.97;;
75700;SDS011;64321;48.796;44.740;2023-08-06T11:36:32;6.32;;;2.55;;
75700;SDS011;64321;48.796;44.740;2023-08-06T11:41:35;4.18;;;2.50;;
75700;SDS011;64321;48.796;44.740;2023-08-06T11:46:55;4.90;;;2.70;;
75700;SDS011;64321;48.796;44.740;2023-08-06T11:51:58;7.57;;;2.25;;
75700;SDS011;64321;48.796;44.740;2023-08-06T11:57:00;5.18;;;2.67;;
75700;SDS011;64321;48.796;44.740;2023-08-06T12:02:04;5.68;;;2.65;;
75700;SDS011;64321;48.796;44.740;2023-08-06T12:07:08;7.07;;;2.13;;
75700;SDS011;64321;48.796;44.740;2023-08-06T12:12:10;4.43;;;2.05;;
75700;SDS011;64321;48.796;44.740;2023-08-06T12:17:14;4.47;;;1.83;;
75700;SDS011;64321;48.796;44.740;2023-08-06T12:22:16;4.97;;;1.58;;
75700;SDS011;64321;48.796;44.740;2023-08-06T12:27:18;7.70;;;2.35;;
75700;SDS011;64321;48.796;44.740;2023-08-06T12:32:21;3.50;;;2.00;;
75700;SDS011;64321;48.796;44.740;2023-08-06T12:37:24;4.45;;;2.35;;
75700;SDS011;64321;48.796;44.740;2023-08-06T12:42:26;5.13;;;1.95;;
75700;SDS011;64321;48.796;44.740;2023-08-06T12:47:28;6.75;;;1.67;;
75700;SDS011;64321;48.796;44.740;2023-08-06T12:52:30;7.22;;;1.98;;
75700;SDS011;64321;48.796;44.740;2023-08-06T12:57:33;4.18;;;1.77;;
75700;SDS011;64321;48.796;44.740;2023-08-06T13:02:57;6.53;;;3.03;;
75700;SDS011;64321;48.796;44.740;2023-08-06T13:07:59;5.18;;;2.75;;
75700;SDS011;64321;48.796;44.740;2023-08-06T13:13:01;5.43;;;2.08;;
75700;SDS011;64321;48.796;44.740;2023-08-06T13:18:03;5.28;;;2.30;;
75700;SDS011;64321;48.796;44.740;2023-08-06T13:23:06;4.50;;;2.25;;
75700;SDS011;64321;48.796;44.740;2023-08-06T13:28:08;4.63;;;2.13;;
75700;SDS011;64321;48.796;44.740;2023-08-06T13:33:10;5.85;;;2.80;;
75700;SDS011;64321;48.796;44.740;2023-08-06T13:38:13;4.72;;;2.60;;
75700;SDS011;64321;48.796;44.740;2023-08-06T13:43:15;5.60;;;2.17;;
75700;SDS011;64321;48.796;44.740;2023-08-06T13:48:19;5.72;;;2.33;;
75700;SDS011;64321;48.796;44.740;2023-08-06T13:53:21;4.75;;;2.65;;
75700;SDS011;64321;48.796;44.740;2023-08-06T13:58:23;3.83;;;2.00;;
75700;SDS011;64321;48.796;44.740;2023-08-06T14:03:25;7.20;;;2.17;;
75700;SDS011;64321;48.796;44.740;2023-08-06T14:08:28;5.00;;;1.98;;
75700;SDS011;64321;48.796;44.740;2023-08-06T14:13:30;9.65;;;2.58;;
75700;SDS011;64321;48.796;44.740;2023-08-06T14:18:32;9.70;;;3.13;;
75700;SDS011;64321;48.796;44.740;2023-08-06T14:23:35;6.82;;;2.33;;
75700;SDS011;64321;48.796;44.740;2023-08-06T14:28:38;8.27;;;2.67;;
75700;SDS011;64321;48.796;44.740;2023-08-06T14:33:40;6.65;;;2.70;;
75700;SDS011;64321;48.796;44.740;2023-08-06T14:38:42;8.43;;;2.85;;
75700;SDS011;64321;48.796;44.740;2023-08-06T14:44:00;11.80;;;2.38;;
75700;SDS011;64321;48.796;44.740;2023-08-06T14:49:02;8.90;;;2.50;;
75700;SDS011;64321;48.796;44.740;2023-08-06T14:54:04;4.68;;;2.67;;
75700;SDS011;64321;48.796;44.740;2023-08-06T14:59:06;12.25;;;2.80;;
75700;SDS011;64321;48.796;44.740;2023-08-06T15:04:08;8.27;;;4.10;;
75700;SDS011;64321;48.796;44.740;2023-08-06T15:09:11;12.00;;;3.33;;
75700;SDS011;64321;48.796;44.740;2023-08-06T15:14:13;6.70;;;3.35;;
75700;SDS011;64321;48.796;44.740;2023-08-06T15:19:16;7.55;;;4.15;;
75700;SDS011;64321;48.796;44.740;2023-08-06T15:24:20;10.07;;;3.63;;
75700;SDS011;64321;48.796;44.740;2023-08-06T15:29:22;9.27;;;4.15;;
75700;SDS011;64321;48.796;44.740;2023-08-06T15:34:24;15.20;;;6.95;;
75700;SDS011;64321;48.796;44.740;2023-08-06T15:39:27;15.63;;;7.30;;
75700;SDS011;64321;48.796;44.740;2023-08-06T15:44:29;12.88;;;6.65;;
75700;SDS011;64321;48.796;44.740;2023-08-06T15:49:31;12.98;;;5.53;;
75700;SDS011;64321;48.796;44.740;2023-08-06T15:54:33;11.65;;;5.68;;
75700;SDS011;64321;48.796;44.740;2023-08-06T15:59:35;8.32;;;4.65;;
75700;SDS011;64321;48.796;44.740;2023-08-06T16:04:38;11.13;;;4.03;;
75700;SDS011;64321;48.796;44.740;2023-08-06T16:09:40;13.63;;;5.47;;
75700;SDS011;64321;48.796;44.740;2023-08-06T16:14:42;13.90;;;5.97;;
75700;SDS011;64321;48.796;44.740;2023-08-06T16:19:44;13.68;;;6.18;;
75700;SDS011;64321;48.796;44.740;2023-08-06T16:24:46;12.65;;;6.15;;
75700;SDS011;64321;48.796;44.740;2023-08-06T16:29:50;10.90;;;5.32;;
75700;SDS011;64321;48.796;44.740;2023-08-06T16:34:53;18.52;;;6.22;;
75700;SDS011;64321;48.796;44.740;2023-08-06T16:39:55;13.10;;;5.50;;
75700;SDS011;64321;48.796;44.740;2023-08-06T16:44:57;11.02;;;5.13;;
75700;SDS011;64321;48.796;44.740;2023-08-06T16:49:59;13.68;;;4.30;;
75700;SDS011;64321;48.796;44.740;2023-08-06T16:55:02;12.48;;;4.53;;
75700;SDS011;64321;48.796;44.740;2023-08-06T17:00:06;9.63;;;5.43;;
75700;SDS011;64321;48.796;44.740;2023-08-06T17:05:10;8.98;;;4.80;;
75700;SDS011;64321;48.796;44.740;2023-08-06T17:10:12;11.15;;;5.03;;
75700;SDS011;64321;48.796;44.740;2023-08-06T17:15:14;9.90;;;4.40;;
75700;SDS011;64321;48.796;44.740;2023-08-06T17:20:16;10.82;;;4.38;;
75700;SDS011;64321;48.796;44.740;2023-08-06T17:25:18;14.10;;;4.38;;
75700;SDS011;64321;48.796;44.740;2023-08-06T17:30:22;7.72;;;4.82;;
75700;SDS011;64321;48.796;44.740;2023-08-06T17:35:25;9.43;;;5.15;;
75700;SDS011;64321;48.796;44.740;2023-08-06T17:40:28;12.93;;;5.32;;
75700;SDS011;64321;48.796;44.740;2023-08-06T17:45:30;13.65;;;5.38;;
75700;SDS011;64321;48.796;44.740;2023-08-06T17:50:33;12.88;;;5.18;;
75700;SDS011;64321;48.796;44.740;2023-08-06T17:55:35;11.30;;;4.82;;
75700;SDS011;64321;48.796;44.740;2023-08-06T18:00:37;10.85;;;3.90;;
75700;SDS011;64321;48.796;44.740;2023-08-06T18:05:40;8.02;;;3.58;;
75700;SDS011;64321;48.796;44.740;2023-08-06T18:10:42;11.80;;;5.70;;
75700;SDS011;64321;48.796;44.740;2023-08-06T18:15:44;16.35;;;6.63;;
75700;SDS011;64321;48.796;44.740;2023-08-06T18:20:46;14.30;;;6.85;;
75700;SDS011;64321;48.796;44.740;2023-08-06T18:25:48;12.90;;;7.53;;
75700;SDS011;64321;48.796;44.740;2023-08-06T18:30:51;12.85;;;6.63;;
75700;SDS011;64321;48.796;44.740;2023-08-06T18:35:53;14.35;;;7.03;;
75700;SDS011;64321;48.796;44.740;2023-08-06T18:40:56;11.90;;;7.20;;
75700;SDS011;64321;48.796;44.740;2023-08-06T18:45:59;14.45;;;6.55;;
75700;SDS011;64321;48.796;44.740;2023-08-06T18:51:01;10.63;;;5.30;;
75700;SDS011;64321;48.796;44.740;2023-08-06T18:56:03;10.27;;;5.82;;
75700;SDS011;64321;48.796;44.740;2023-08-06T19:01:06;10.40;;;6.38;;
75700;SDS011;64321;48.796;44.740;2023-08-06T19:06:08;12.25;;;6.38;;
75700;SDS011;64321;48.796;44.740;2023-08-06T19:11:10;10.18;;;5.97;;
75700;SDS011;64321;48.796;44.740;2023-08-06T19:16:12;9.10;;;5.63;;
75700;SDS011;64321;48.796;44.740;2023-08-06T19:21:14;10.77;;;5.45;;
75700;SDS011;64321;48.796;44.740;2023-08-06T19:26:16;12.85;;;5.50;;
75700;SDS011;64321;48.796;44.740;2023-08-06T19:31:18;9.25;;;4.60;;
75700;SDS011;64321;48.796;44.740;2023-08-06T19:36:21;9.55;;;5.35;;
75700;SDS011;64321;48.796;44.740;2023-08-06T19:41:23;9.13;;;5.25;;
75700;SDS011;64321;48.796;44.740;2023-08-06T19:46:25;9.32;;;5.10;;
75700;SDS011;64321;48.796;44.740;2023-08-06T19:51:27;11.82;;;5.78;;
75700;SDS011;64321;48.796;44.740;2023-08-06T19:56:31;12.43;;;5.90;;
75700;SDS011;64321;48.796;44.740;2023-08-06T20:01:33;14.27;;;5.50;;
75700;SDS011;64321;48.796;44.740;2023-08-06T20:06:36;13.65;;;5.65;;
75700;SDS011;64321;48.796;44.740;2023-08-06T20:11:38;12.65;;;5.05;;
75700;SDS011;64321;48.796;44.740;2023-08-06T20:16:40;9.68;;;4.57;;
75700;SDS011;64321;48.796;44.740;2023-08-06T20:21:43;12.98;;;5.47;;
75700;SDS011;64321;48.796;44.740;2023-08-06T20:26:45;12.30;;;5.40;;
75700;SDS011;64321;48.796;44.740;2023-08-06T20:31:48;11.88;;;5.47;;
75700;SDS011;64321;48.796;44.740;2023-08-06T20:36:50;11.30;;;4.05;;
75700;SDS011;64321;48.796;44.740;2023-08-06T20:41:53;10.65;;;3.88;;
75700;SDS011;64321;48.796;44.740;2023-08-06T20:46:56;6.70;;;4.45;;
75700;SDS011;64321;48.796;44.740;2023-08-06T20:51:58;9.77;;;4.88;;
75700;SDS011;64321;48.796;44.740;2023-08-06T20:57:00;8.25;;;5.28;;
75700;SDS011;64321;48.796;44.740;2023-08-06T21:02:03;12.10;;;5.80;;
75700;SDS011;64321;48.796;44.740;2023-08-06T21:07:05;12.02;;;6.68;;
75700;SDS011;64321;48.796;44.740;2023-08-06T21:12:07;9.07;;;5.95;;
75700;SDS011;64321;48.796;44.740;2023-08-06T21:17:09;10.75;;;5.88;;
75700;SDS011;64321;48.796;44.740;2023-08-06T21:22:12;11.68;;;5.18;;
75700;SDS011;64321;48.796;44.740;2023-08-06T21:27:14;10.52;;;4.95;;
75700;SDS011;64321;48.796;44.740;2023-08-06T21:32:16;7.45;;;4.70;;
75700;SDS011;64321;48.796;44.740;2023-08-06T21:37:18;13.27;;;4.82;;
75700;SDS011;64321;48.796;44.740;2023-08-06T21:42:20;9.07;;;4.68;;
75700;SDS011;64321;48.796;44.740;2023-08-06T21:47:22;7.00;;;4.05;;
75700;SDS011;64321;48.796;44.740;2023-08-06T21:52:25;12.48;;;5.05;;
75700;SDS011;64321;48.796;44.740;2023-08-06T21:57:27;10.27;;;4.97;;
75700;SDS011;64321;48.796;44.740;2023-08-06T22:02:29;8.65;;;5.00;;
75700;SDS011;64321;48.796;44.740;2023-08-06T22:07:31;12.65;;;5.40;;
75700;SDS011;64321;48.796;44.740;2023-08-06T22:12:33;9.93;;;5.18;;
75700;SDS011;64321;48.796;44.740;2023-08-06T22:17:35;8.25;;;5.05;;
75700;SDS011;64321;48.796;44.740;2023-08-06T22:22:38;8.93;;;5.15;;
75700;SDS011;64321;48.796;44.740;2023-08-06T22:27:40;10.73;;;5.22;;
75700;SDS011;64321;48.796;44.740;2023-08-06T22:32:42;8.00;;;4.68;;
75700;SDS011;64321;48.796;44.740;2023-08-06T22:37:45;9.40;;;5.47;;
75700;SDS011;64321;48.796;44.740;2023-08-06T22:42:47;9.82;;;5.15;;
75700;SDS011;64321;48.796;44.740;2023-08-06T22:47:49;6.90;;;5.03;;
75700;SDS011;64321;48.796;44.740;2023-08-06T22:52:51;10.32;;;5.80;;
75700;SDS011;64321;48.796;44.740;2023-08-06T22:57:53;10.07;;;5.47;;
75700;SDS011;64321;48.796;44.740;2023-08-06T23:02:56;8.05;;;5.20;;
75700;SDS011;64321;48.796;44.740;2023-08-06T23:08:11;7.00;;;5.30;;
75700;SDS011;64321;48.796;44.740;2023-08-06T23:13:13;7.28;;;4.97;;
75700;SDS011;64321;48.796;44.740;2023-08-06T23:18:15;7.55;;;5.22;;
75700;SDS011;64321;48.796;44.740;2023-08-06T23:23:17;11.35;;;5.32;;
75700;SDS011;64321;48.796;44.740;2023-08-06T23:28:19;7.93;;;5.25;;
75700;SDS011;64321;48.796;44.740;2023-08-06T23:33:21;11.23;;;5.75;;
75700;SDS011;64321;48.796;44.740;2023-08-06T23:38:24;8.70;;;6.45;;
75700;SDS011;64321;48.796;44.740;2023-08-06T23:43:26;7.68;;;5.53;;
75700;SDS011;64321;48.796;44.740;2023-08-06T23:48:28;7.57;;;5.55;;
75700;SDS011;64321;48.796;44.740;2023-08-06T23:53:30;8.95;;;5.68;;
75700;SDS011;64321;48.796;44.740;2023-08-06T23:58:32;7.05;;;5.45;;
